Time;durP1;ratioP1;P1;durP2;ratioP2;P2;SDS_P1;SDS_P2;PMS_P1;PMS_P2;Temp;Humidity;BMP_temperature;BMP_pressure;BME280_temperature;BME280_humidity;BME280_pressure;Samples;Min_cycle;Max_cycle;Signal;HPM_P1;HPM_P2
2021/10/25 00:02:19;;;;;;;12.50;2.72;;;2.60;99.90;;;;;;4996303;28;19913;-76
2021/10/25 00:04:44;;;;;;;11.23;2.65;;;2.60;99.90;;;;;;4996468;28;20110;-76
2021/10/25 00:07:10;;;;;;;;;;;2.60;99.90;;;;;;4979141;28;20061;-76
2021/10/25 00:09:36;;;;;;;7.75;2.40;;;2.80;99.90;;;;;;4979142;28;19906;-76
2021/10/25 00:12:01;;;;;;;;;;;2.70;99.90;;;;;;4997082;28;20046;-76
2021/10/25 00:14:27;;;;;;;10.07;2.53;;;2.80;99.90;;;;;;4980760;28;19910;-76
2021/10/25 00:16:53;;;;;;;10.55;2.85;;;2.80;99.90;;;;;;5005706;28;20515;-76
2021/10/25 00:19:19;;;;;;;14.30;4.75;;;2.80;99.90;;;;;;4984627;28;20026;-76
2021/10/25 00:21:45;;;;;;;12.20;4.13;;;2.80;99.90;;;;;;4983112;28;20030;-75
2021/10/25 00:24:11;;;;;;;;;;;2.70;99.90;;;;;;5001526;28;20030;-75
2021/10/25 00:26:37;;;;;;;20.05;6.05;;;2.70;99.90;;;;;;4983568;28;19909;-75
2021/10/25 00:29:03;;;;;;;;;;;2.60;99.90;;;;;;4983299;28;20030;-76
2021/10/25 00:31:29;;;;;;;22.60;8.60;;;2.60;99.90;;;;;;5001853;28;20397;-76
2021/10/25 00:33:55;;;;;;;19.70;6.78;;;2.60;99.90;;;;;;4984827;28;20538;-76
2021/10/25 00:36:21;;;;;;;;;;;2.50;99.90;;;;;;5002841;28;20454;-76
2021/10/25 00:38:47;;;;;;;17.50;7.03;;;2.60;99.90;;;;;;5002821;28;19909;-76
2021/10/25 00:41:12;;;;;;;21.17;7.75;;;2.40;99.90;;;;;;4985252;28;20034;-76
2021/10/25 00:43:38;;;;;;;;;;;2.30;99.90;;;;;;5003902;28;20828;-76
2021/10/25 00:46:06;;;;;;;23.90;8.82;;;2.30;99.90;;;;;;4985157;28;20290;-76
2021/10/25 00:48:33;;;;;;;25.90;9.75;;;2.30;99.90;;;;;;5003711;28;20061;-76
2021/10/25 00:50:59;;;;;;;27.63;10.63;;;2.30;99.90;;;;;;5003635;28;20030;-76
2021/10/25 00:53:24;;;;;;;;;;;2.30;99.90;;;;;;5008053;28;20082;-76
2021/10/25 00:55:51;;;;;;;23.42;8.88;;;2.20;99.90;;;;;;5004144;28;19909;-76
2021/10/25 00:58:17;;;;;;;23.90;8.77;;;2.20;99.90;;;;;;4984365;28;20038;-77
2021/10/25 01:00:43;;;;;;;18.02;7.57;;;2.20;99.90;;;;;;5002329;28;20441;-76
2021/10/25 01:03:08;;;;;;;;;;;2.20;99.90;;;;;;4985459;28;20033;-76
2021/10/25 01:05:36;;;;;;;24.55;8.57;;;2.10;99.90;;;;;;4984336;28;19922;-76
2021/10/25 01:08:03;;;;;;;25.88;9.55;;;2.10;99.90;;;;;;4985153;28;20039;-76
2021/10/25 01:10:30;;;;;;;21.77;9.10;;;2.10;99.90;;;;;;4983712;28;20030;-76
2021/10/25 01:12:57;;;;;;;21.73;8.38;;;2.10;99.90;;;;;;4984968;28;20043;-77
2021/10/25 01:15:24;;;;;;;25.00;9.27;;;2.10;99.90;;;;;;4984557;28;20026;-76
2021/10/25 01:17:57;;;;;;;21.58;9.05;;;2.00;99.90;;;;;;4984632;28;20030;-76
2021/10/25 01:20:28;;;;;;;28.75;9.82;;;2.10;99.90;;;;;;4985171;28;20030;-76
2021/10/25 01:22:54;;;;;;;35.28;11.30;;;2.10;99.90;;;;;;4985468;28;20499;-76
2021/10/25 01:25:21;;;;;;;27.08;8.00;;;2.00;99.90;;;;;;5002088;28;20033;-75
2021/10/25 01:27:48;;;;;;;25.63;8.52;;;2.10;99.90;;;;;;4983510;28;20026;-76
2021/10/25 01:30:14;;;;;;;20.95;7.95;;;2.10;99.90;;;;;;4983549;28;20023;-77
2021/10/25 01:32:45;;;;;;;27.95;9.65;;;2.10;99.90;;;;;;4989264;28;20080;-77
2021/10/25 01:35:11;;;;;;;21.50;8.82;;;2.20;99.90;;;;;;5002038;28;20030;-76
2021/10/25 01:37:37;;;;;;;23.88;8.98;;;2.20;99.90;;;;;;4999297;28;20030;-76
2021/10/25 01:40:04;;;;;;;;;;;2.20;99.90;;;;;;4996524;28;20026;-76
2021/10/25 01:42:29;;;;;;;18.33;7.93;;;2.20;99.90;;;;;;4977802;28;19940;-76
2021/10/25 01:44:55;;;;;;;;;;;2.20;99.90;;;;;;4998154;28;20105;-76
2021/10/25 01:47:21;;;;;;;20.50;7.95;;;2.10;99.90;;;;;;4979085;28;20354;-76
2021/10/25 01:49:46;;;;;;;;;;;2.10;99.90;;;;;;4980527;28;20030;-77
2021/10/25 01:52:14;;;;;;;25.90;10.02;;;2.10;99.90;;;;;;4997437;28;19996;-76
2021/10/25 01:54:40;;;;;;;27.88;10.15;;;2.10;99.90;;;;;;4998079;28;20034;-75
2021/10/25 01:57:07;;;;;;;;;;;2.00;99.90;;;;;;4995580;28;20553;-75
2021/10/25 01:59:33;;;;;;;28.33;9.45;;;2.00;99.90;;;;;;4981502;28;19913;-76
2021/10/25 02:01:59;;;;;;;;;;;2.00;99.90;;;;;;5000524;28;20102;-77
2021/10/25 02:04:26;;;;;;;24.92;8.02;;;2.00;99.90;;;;;;5000147;28;19944;-76
2021/10/25 02:06:51;;;;;;;24.33;8.13;;;2.00;99.90;;;;;;4982853;28;20077;-76
2021/10/25 02:09:17;;;;;;;;;;;1.90;99.90;;;;;;4999707;28;20038;-77
2021/10/25 02:11:43;;;;;;;23.20;7.90;;;1.90;99.90;;;;;;4987113;28;19914;-76
2021/10/25 02:14:08;;;;;;;;;;;1.90;99.90;;;;;;4981965;28;20121;-76
2021/10/25 02:16:34;;;;;;;21.20;7.30;;;1.90;99.90;;;;;;4999140;28;19910;-77
2021/10/25 02:19:00;;;;;;;;;;;1.90;99.90;;;;;;4981703;28;20022;-75
2021/10/25 02:21:26;;;;;;;18.02;6.97;;;1.90;99.90;;;;;;4982372;28;19960;-75
2021/10/25 02:23:51;;;;;;;;;;;1.80;99.90;;;;;;4983349;28;20046;-76
2021/10/25 02:26:17;;;;;;;11.35;3.38;;;1.90;99.90;;;;;;4984073;28;19905;-76
2021/10/25 02:28:42;;;;;;;;;;;1.80;99.90;;;;;;5002392;28;20030;-77
2021/10/25 02:31:08;;;;;;;10.10;2.97;;;2.00;99.90;;;;;;4996362;28;19914;-76
2021/10/25 02:33:34;;;;;;;9.23;3.08;;;1.90;99.90;;;;;;4976496;28;20042;-76
2021/10/25 02:35:59;;;;;;;;;;;1.90;99.90;;;;;;4977079;28;20407;-76
2021/10/25 02:38:25;;;;;;;5.90;2.33;;;2.00;99.90;;;;;;4977022;28;19906;-77
2021/10/25 02:40:50;;;;;;;;;;;2.00;99.90;;;;;;4995412;28;20474;-77
2021/10/25 02:43:16;;;;;;;6.95;1.70;;;2.10;99.90;;;;;;4977441;28;20430;-76
2021/10/25 02:45:43;;;;;;;11.35;2.67;;;2.10;99.90;;;;;;4994587;28;20038;-76
2021/10/25 02:48:10;;;;;;;6.38;2.10;;;2.10;99.90;;;;;;4995684;28;20157;-76
2021/10/25 02:50:35;;;;;;;11.70;2.17;;;2.20;99.90;;;;;;4994812;28;20030;-76
2021/10/25 02:53:01;;;;;;;;;;;2.10;99.90;;;;;;4977868;28;20050;-75
2021/10/25 02:55:27;;;;;;;11.48;2.38;;;2.10;99.90;;;;;;4978103;28;19920;-76
2021/10/25 02:57:53;;;;;;;19.75;4.50;;;2.10;99.90;;;;;;4977529;28;20045;-76
2021/10/25 03:00:19;;;;;;;;;;;2.10;99.90;;;;;;4996332;28;20455;-76
2021/10/25 03:02:45;;;;;;;7.25;2.17;;;2.10;99.90;;;;;;4995031;28;19914;-76
2021/10/25 03:05:11;;;;;;;11.07;2.80;;;2.00;99.90;;;;;;4995659;28;20045;-76
2021/10/25 03:07:37;;;;;;;9.75;2.70;;;2.00;99.90;;;;;;4978807;28;20458;-77
2021/10/25 03:10:04;;;;;;;;;;;1.90;99.90;;;;;;4996097;28;20476;-76
2021/10/25 03:12:29;;;;;;;10.80;4.47;;;1.90;99.90;;;;;;4978628;28;19913;-76
2021/10/25 03:14:55;;;;;;;;;;;1.80;99.90;;;;;;4996821;28;20495;-76
2021/10/25 03:17:21;;;;;;;6.75;2.90;;;1.80;99.90;;;;;;4978088;28;19921;-76
2021/10/25 03:19:47;;;;;;;;;;;1.80;99.90;;;;;;4995895;28;20023;-77
2021/10/25 03:22:14;;;;;;;6.72;2.80;;;1.80;99.90;;;;;;4978972;28;19956;-76
2021/10/25 03:24:40;;;;;;;;;;;1.90;99.90;;;;;;4979251;28;20062;-76
2021/10/25 03:27:06;;;;;;;9.07;3.50;;;1.80;99.90;;;;;;4979422;28;19905;-76
2021/10/25 03:29:31;;;;;;;;;;;1.80;99.90;;;;;;4997074;28;20053;-76
2021/10/25 03:31:58;;;;;;;14.15;5.20;;;1.80;99.90;;;;;;4979137;28;19945;-76
2021/10/25 03:34:25;;;;;;;16.15;6.05;;;1.80;99.90;;;;;;4996840;28;20030;-76
2021/10/25 03:36:51;;;;;;;18.10;6.82;;;1.80;99.90;;;;;;4979663;28;20037;-76
2021/10/25 03:39:21;;;;;;;18.42;6.88;;;1.80;99.90;;;;;;4978669;28;20026;-76
2021/10/25 03:41:48;;;;;;;16.75;6.60;;;1.70;99.90;;;;;;4997479;28;20026;-76
2021/10/25 03:44:27;;;;;;;17.73;6.32;;;1.70;99.90;;;;;;4997576;28;20026;-76
2021/10/25 03:49:33;;;;;;;14.10;6.65;;;1.70;99.90;;;;;;4997839;28;20114;-76
2021/10/25 03:52:05;;;;;;;22.10;7.05;;;1.70;99.90;;;;;;4977555;28;20058;-75
2021/10/25 03:54:41;;;;;;;18.25;6.25;;;1.70;99.90;;;;;;4979682;28;20045;-76
2021/10/25 04:29:21;;;;;;;;;;;1.90;99.90;;;;;;4994702;28;20039;-76
2021/10/25 04:31:47;;;;;;;13.23;3.67;;;1.90;99.90;;;;;;4994652;28;19988;-76
2021/10/25 04:34:13;;;;;;;;;;;1.90;99.90;;;;;;4978168;28;20030;-76
2021/10/25 04:36:39;;;;;;;8.15;2.30;;;1.90;99.90;;;;;;4977625;28;19906;-77
2021/10/25 04:39:09;;;;;;;11.52;3.15;;;2.00;99.90;;;;;;4995161;28;20541;-76
2021/10/25 04:41:35;;;;;;;7.68;2.65;;;2.00;99.90;;;;;;4995309;28;20026;-77
2021/10/25 04:44:01;;;;;;;9.80;3.05;;;2.00;99.90;;;;;;4995948;28;20030;-76
2021/10/25 04:46:27;;;;;;;;;;;2.00;99.90;;;;;;4979020;28;20026;-77
2021/10/25 04:48:52;;;;;;;6.28;1.40;;;2.10;99.90;;;;;;4996201;28;19980;-76
2021/10/25 04:51:18;;;;;;;;;;;2.10;99.90;;;;;;4996563;28;20101;-77
2021/10/25 04:53:43;;;;;;;6.57;1.40;;;2.20;99.90;;;;;;4997450;28;19981;-76
2021/10/25 04:56:09;;;;;;;;;;;2.40;99.90;;;;;;4980056;28;20022;-76
2021/10/25 04:58:35;;;;;;;6.68;1.48;;;2.50;99.90;;;;;;4977058;28;20457;-77
2021/10/25 05:01:00;;;;;;;;;;;2.50;99.90;;;;;;4977951;28;20023;-76
2021/10/25 05:03:26;;;;;;;13.55;5.22;;;2.50;99.90;;;;;;4997343;28;19913;-77
2021/10/25 05:05:52;;;;;;;31.00;11.73;;;2.40;99.90;;;;;;4999172;28;20022;-76
2021/10/25 05:08:18;;;;;;;;;;;2.30;99.90;;;;;;4981006;28;20037;-77
2021/10/25 05:10:43;;;;;;;24.10;10.43;;;2.20;99.90;;;;;;4998387;28;19913;-77
2021/10/25 05:13:09;;;;;;;;;;;2.20;99.90;;;;;;4998532;28;20037;-76
2021/10/25 05:15:34;;;;;;;15.73;6.60;;;2.20;99.90;;;;;;4981008;28;19906;-76
2021/10/25 05:18:00;;;;;;;;;;;2.30;99.90;;;;;;4999913;28;20085;-76
2021/10/25 05:20:26;;;;;;;28.65;11.10;;;2.40;99.90;;;;;;4999664;28;19908;-76
2021/10/25 05:22:52;;;;;;;;;;;2.40;99.90;;;;;;4999240;28;20032;-77
2021/10/25 05:25:17;;;;;;;53.47;21.58;;;2.30;99.90;;;;;;4982788;28;19957;-76
2021/10/25 05:27:43;;;;;;;;;;;2.40;99.90;;;;;;4999848;28;20037;-76
2021/10/25 05:30:09;;;;;;;24.55;11.00;;;2.30;99.90;;;;;;4982504;28;19965;-77
2021/10/25 05:32:35;;;;;;;30.38;13.77;;;2.40;99.90;;;;;;4982361;28;20101;-77
2021/10/25 05:35:00;;;;;;;;;;;2.40;99.90;;;;;;5000428;28;20065;-77
2021/10/25 05:37:26;;;;;;;43.60;18.90;;;2.40;99.90;;;;;;4985423;28;19906;-77
2021/10/25 05:39:55;;;;;;;32.15;14.70;;;2.50;99.90;;;;;;4983531;28;20042;-76
2021/10/25 05:42:21;;;;;;;33.00;13.77;;;2.40;99.90;;;;;;4998778;28;20030;-76
2021/10/25 05:44:46;;;;;;;;;;;2.40;99.90;;;;;;4981177;28;20053;-76
2021/10/25 05:47:12;;;;;;;22.65;6.63;;;2.30;99.90;;;;;;4980181;28;19921;-76
2021/10/25 05:49:38;;;;;;;;;;;2.40;99.90;;;;;;5000200;28;20739;-77
2021/10/25 05:52:04;;;;;;;23.27;8.88;;;2.50;99.90;;;;;;4998919;28;19921;-76
2021/10/25 05:54:30;;;;;;;;;;;2.50;99.90;;;;;;5001012;28;20038;-77
2021/10/25 05:56:56;;;;;;;41.72;11.40;;;2.60;99.90;;;;;;4987218;28;19968;-76
2021/10/25 05:59:25;;;;;;;22.23;9.23;;;2.70;99.90;;;;;;4980095;28;20034;-75
2021/10/25 06:02:08;;;;;;;42.47;15.10;;;2.90;99.90;;;;;;4979247;28;20041;-76
2021/10/25 06:04:34;;;;;;;30.42;10.07;;;3.00;99.90;;;;;;4981050;28;20449;-76
2021/10/25 06:06:59;;;;;;;;;;;3.20;99.90;;;;;;4998463;28;20027;-76
2021/10/25 06:09:27;;;;;;;26.17;9.70;;;3.20;99.90;;;;;;4979245;28;19910;-76
2021/10/25 06:11:54;;;;;;;23.83;9.75;;;3.30;99.90;;;;;;4979472;28;20044;-76
2021/10/25 06:14:27;;;;;;;;;;;3.40;99.90;;;;;;4997993;28;20612;-76
2021/10/25 06:16:58;;;;;;;35.42;6.65;;;3.50;99.90;;;;;;4978929;28;19941;-78
2021/10/25 06:19:24;;;;;;;23.55;6.78;;;4.10;99.90;;;;;;4978995;28;20117;-77
2021/10/25 06:21:49;;;;;;;;;;;4.80;99.90;;;;;;4979501;28;20022;-76
2021/10/25 06:24:15;;;;;;;20.25;6.53;;;5.70;99.90;;;;;;4977652;28;20009;-77
2021/10/25 06:26:41;;;;;;;22.15;6.05;;;6.40;99.90;;;;;;4975481;28;20140;-76
2021/10/25 06:29:07;;;;;;;;;;;7.40;98.90;;;;;;4992616;28;20533;-78
2021/10/25 06:31:33;;;;;;;25.50;5.30;;;8.20;95.30;;;;;;4990420;28;19921;-75
2021/10/25 06:34:03;;;;;;;;;;;8.80;94.50;;;;;;4991233;28;20447;-78
2021/10/25 06:36:34;;;;;;;17.98;6.28;;;9.40;90.20;;;;;;4973086;28;19917;-77
2021/10/25 06:39:11;;;;;;;21.63;6.00;;;9.80;89.10;;;;;;4973099;28;20415;-80
2021/10/25 06:41:36;;;;;;;;;;;10.40;84.80;;;;;;4991145;28;20167;-83
2021/10/25 06:44:02;;;;;;;13.95;6.20;;;10.50;80.30;;;;;;4990861;28;20401;-76
2021/10/25 06:46:28;;;;;;;;;;;10.40;80.70;;;;;;4991249;28;20549;-77
2021/10/25 06:48:53;;;;;;;18.83;6.38;;;10.10;80.80;;;;;;4972755;28;20342;-76
2021/10/25 06:51:19;;;;;;;;;;;9.90;82.40;;;;;;4990781;28;20062;-76
2021/10/25 06:53:45;;;;;;;15.00;5.25;;;9.70;81.80;;;;;;4990820;28;19910;-77
2021/10/25 06:56:10;;;;;;;;;;;9.50;83.50;;;;;;4974225;28;20038;-77
2021/10/25 06:58:36;;;;;;;14.52;5.65;;;9.50;83.00;;;;;;4991495;28;19909;-77
2021/10/25 07:01:03;;;;;;;;;;;9.50;82.00;;;;;;4993505;28;20034;-76
2021/10/25 07:03:29;;;;;;;21.57;8.03;;;9.40;79.20;;;;;;4975926;28;19906;-77
2021/10/25 07:05:55;;;;;;;19.80;7.97;;;9.50;79.10;;;;;;4993050;28;20292;-76
2021/10/25 07:08:21;;;;;;;12.35;5.88;;;9.50;78.00;;;;;;4975236;28;20030;-76
2021/10/25 07:10:47;;;;;;;16.38;6.88;;;9.60;79.20;;;;;;4976390;28;20038;-77
2021/10/25 07:13:13;;;;;;;;;;;9.80;77.70;;;;;;4978234;28;20039;-77
2021/10/25 07:15:46;;;;;;;9.73;4.35;;;9.90;75.90;;;;;;4993101;28;19944;-76
2021/10/25 07:20:47;;;;;;;;;;;10.10;76.10;;;;;;4992847;28;20053;-77
2021/10/25 07:26:41;;;;;;;7.20;1.95;;;10.20;74.80;;;;;;4992111;28;20104;-76
2021/10/25 08:11:59;;;;;;;5.82;2.22;;;11.40;66.70;;;;;;4989034;28;20042;-77
2021/10/25 08:14:34;;;;;;;11.82;5.05;;;11.50;66.90;;;;;;4989070;28;20037;-77
2021/10/25 08:17:01;;;;;;;7.15;1.73;;;11.70;66.50;;;;;;4989229;28;20081;-77
2021/10/25 08:19:29;;;;;;;8.75;2.30;;;12.10;65.20;;;;;;4989076;28;20054;-76
2021/10/25 08:21:59;;;;;;;21.17;10.23;;;12.50;63.80;;;;;;4971521;28;20031;-75
2021/10/25 08:24:28;;;;;;;15.88;3.67;;;13.00;62.70;;;;;;4971340;28;20109;-76
2021/10/25 08:26:54;;;;;;;6.30;2.00;;;13.70;59.90;;;;;;4971678;28;20026;-78
2021/10/25 08:29:20;;;;;;;;;;;14.30;57.40;;;;;;4971897;28;20112;-77
2021/10/25 08:32:11;;;;;;;8.43;1.97;;;14.60;55.10;;;;;;4971392;28;19940;-77
2021/10/25 08:40:02;;;;;;;11.43;1.63;;;15.30;51.70;;;;;;4992987;28;20074;-77
2021/10/25 08:42:33;;;;;;;7.90;2.30;;;15.30;51.70;;;;;;4992600;28;20117;-78
2021/10/25 08:45:08;;;;;;;9.23;1.85;;;15.70;51.70;;;;;;4975510;28;20136;-77
2021/10/25 08:48:09;;;;;;;9.55;1.77;;;16.10;50.30;;;;;;4992645;28;20065;-78
2021/10/25 08:50:30;;;;;;;4.53;1.42;;;16.50;49.50;;;;;;4990500;28;20030;-78
2021/10/25 08:52:57;;;;;;;5.97;1.73;;;17.10;47.30;;;;;;4992518;28;20053;-78
2021/10/25 08:55:23;;;;;;;6.18;2.40;;;17.20;46.40;;;;;;4975079;28;20050;-77
2021/10/25 08:57:50;;;;;;;10.98;2.40;;;16.80;46.80;;;;;;4992341;28;20026;-78
2021/10/25 09:00:22;;;;;;;7.60;1.92;;;16.80;46.70;;;;;;4992478;28;20035;-77
2021/10/25 09:02:58;;;;;;;6.25;1.85;;;16.80;46.50;;;;;;4992455;28;20031;-77
2021/10/25 09:05:24;;;;;;;9.30;2.38;;;16.80;46.40;;;;;;4975308;28;20073;-76
2021/10/25 09:08:03;;;;;;;13.38;2.63;;;17.00;46.30;;;;;;4974826;28;20062;-78
2021/10/25 09:10:33;;;;;;;7.00;2.22;;;17.20;46.30;;;;;;4974425;28;20524;-78
2021/10/25 09:13:13;;;;;;;9.48;2.00;;;17.50;44.80;;;;;;4992382;28;20030;-78
2021/10/25 09:15:40;;;;;;;11.63;2.33;;;17.50;44.40;;;;;;4989645;28;20035;-78
2021/10/25 09:18:15;;;;;;;6.13;1.95;;;17.30;43.90;;;;;;4974789;28;20034;-78
2021/10/25 09:20:54;;;;;;;9.13;1.42;;;17.20;43.40;;;;;;4974914;28;20113;-78
2021/10/25 09:23:23;;;;;;;6.32;1.65;;;17.20;43.90;;;;;;4974822;28;20145;-76
2021/10/25 09:25:53;;;;;;;26.65;3.38;;;17.20;43.10;;;;;;4991888;28;20019;-77
2021/10/25 09:28:26;;;;;;;13.77;2.42;;;17.20;43.20;;;;;;4991937;28;20058;-75
2021/10/25 09:31:01;;;;;;;38.72;3.30;;;17.20;43.90;;;;;;4992092;28;20030;-75
2021/10/25 09:33:38;;;;;;;15.27;2.38;;;17.30;42.80;;;;;;4974442;28;20034;-74
2021/10/25 09:36:10;;;;;;;18.90;3.50;;;17.20;42.80;;;;;;4991817;28;20022;-75
2021/10/25 09:38:59;;;;;;;13.55;1.90;;;17.00;43.20;;;;;;4974297;28;20125;-75
2021/10/25 09:49:29;;;;;;;10.57;1.80;;;14.50;48.00;;;;;;4990851;28;20031;-77
2021/10/25 09:52:00;;;;;;;20.45;2.47;;;14.10;48.70;;;;;;4973804;28;20065;-76
2021/10/25 09:54:30;;;;;;;19.27;2.28;;;13.80;49.90;;;;;;4973970;28;20023;-76
2021/10/25 09:57:07;;;;;;;9.38;2.60;;;13.80;50.70;;;;;;4973912;28;20510;-78
2021/10/25 10:02:10;;;;;;;;;;;13.50;50.90;;;;;;4992022;28;20034;-77
2021/10/25 10:04:38;;;;;;;24.23;3.80;;;13.30;52.20;;;;;;4991357;28;19941;-77
2021/10/25 10:07:04;;;;;;;8.23;2.05;;;13.00;52.60;;;;;;4973718;28;20060;-76
2021/10/25 10:09:31;;;;;;;7.68;1.63;;;13.00;52.20;;;;;;4973856;28;20027;-77
2021/10/25 10:11:57;;;;;;;9.82;2.33;;;12.90;52.10;;;;;;4973748;28;20085;-77
2021/10/25 10:14:24;;;;;;;;;;;12.80;53.00;;;;;;4974118;28;20403;-76
2021/10/25 10:16:50;;;;;;;6.40;2.10;;;12.80;52.80;;;;;;4973763;28;20342;-76
2021/10/25 10:19:21;;;;;;;;;;;12.80;53.00;;;;;;4991582;28;20069;-76
2021/10/25 10:21:49;;;;;;;11.40;2.22;;;12.70;53.50;;;;;;4973599;28;19912;-78
2021/10/25 10:24:16;;;;;;;11.80;2.67;;;12.50;53.70;;;;;;4973789;28;20038;-76
2021/10/25 10:26:53;;;;;;;14.30;2.60;;;12.60;54.20;;;;;;4990762;28;20033;-77
2021/10/25 10:29:20;;;;;;;5.68;2.03;;;12.60;54.10;;;;;;4973413;28;20030;-78
2021/10/25 10:32:01;;;;;;;7.75;2.55;;;12.70;53.50;;;;;;4973183;28;20417;-75
2021/10/25 10:34:39;;;;;;;6.57;2.28;;;12.70;53.40;;;;;;4990616;28;20038;-77
2021/10/25 10:37:19;;;;;;;7.78;2.83;;;12.80;53.50;;;;;;4973174;28;20161;-77
2021/10/25 10:40:07;;;;;;;8.38;2.72;;;12.80;53.80;;;;;;4973154;28;20042;-79
2021/10/25 10:42:37;;;;;;;6.55;2.35;;;12.70;53.80;;;;;;4973058;28;20031;-78
2021/10/25 10:45:08;;;;;;;7.15;2.17;;;12.70;53.90;;;;;;4990604;28;20125;-77
2021/10/25 10:47:53;;;;;;;7.70;2.42;;;12.70;54.00;;;;;;4973203;28;20041;-78
2021/10/25 10:50:35;;;;;;;11.13;2.33;;;12.80;54.10;;;;;;4990701;28;20113;-77
2021/10/25 10:53:13;;;;;;;9.32;2.20;;;12.80;53.20;;;;;;4971992;28;20573;-78
2021/10/25 10:55:42;;;;;;;4.95;1.80;;;12.80;53.10;;;;;;4973033;28;20023;-79
2021/10/25 10:58:26;;;;;;;11.48;2.92;;;12.80;53.40;;;;;;4990535;28;20116;-77
2021/10/25 11:01:05;;;;;;;8.07;2.28;;;12.80;53.00;;;;;;4972689;28;20045;-75
2021/10/25 11:03:31;;;;;;;8.60;1.88;;;12.70;52.80;;;;;;4972951;28;20038;-79
2021/10/25 11:06:05;;;;;;;6.10;2.60;;;12.80;53.70;;;;;;4990180;28;20022;-78
2021/10/25 11:08:32;;;;;;;13.85;2.28;;;12.90;52.90;;;;;;4972407;28;20028;-78
2021/10/25 11:11:03;;;;;;;10.57;2.20;;;12.90;52.80;;;;;;4972633;28;20034;-77
2021/10/25 11:13:33;;;;;;;9.40;2.08;;;12.90;53.10;;;;;;4989873;28;20076;-78
2021/10/25 11:16:15;;;;;;;5.10;1.92;;;13.10;51.60;;;;;;4989878;28;20062;-77
2021/10/25 11:18:49;;;;;;;7.15;1.63;;;13.00;51.00;;;;;;4988249;28;20034;-78
2021/10/25 11:21:37;;;;;;;25.05;10.25;;;12.90;51.90;;;;;;4989805;28;20100;-78
2021/10/25 11:24:09;;;;;;;7.80;3.30;;;12.90;52.60;;;;;;4986537;28;20034;-78
2021/10/25 11:26:42;;;;;;;9.10;1.90;;;13.00;51.90;;;;;;4989671;28;20089;-78
2021/10/25 11:29:26;;;;;;;4.88;1.75;;;13.10;50.90;;;;;;4989842;28;20023;-76
2021/10/25 11:31:58;;;;;;;5.70;1.90;;;13.00;51.40;;;;;;4989585;28;20034;-78
2021/10/25 11:34:25;;;;;;;12.82;2.05;;;13.00;51.00;;;;;;4989534;28;20625;-77
2021/10/25 11:37:03;;;;;;;4.20;1.67;;;13.10;50.90;;;;;;4989756;28;20018;-77
2021/10/25 11:39:43;;;;;;;8.55;2.45;;;13.10;50.70;;;;;;4972334;28;20034;-78
2021/10/25 11:42:15;;;;;;;7.15;2.10;;;13.10;51.10;;;;;;4989725;28;20030;-78
2021/10/25 11:44:43;;;;;;;4.40;1.98;;;13.10;51.90;;;;;;4971906;28;20031;-76
2021/10/25 11:47:27;;;;;;;8.65;2.25;;;13.10;51.60;;;;;;4971991;28;20495;-78
2021/10/25 11:50:03;;;;;;;13.57;2.42;;;13.10;50.80;;;;;;4972058;28;20053;-80
2021/10/25 11:52:40;;;;;;;8.02;2.40;;;13.10;51.30;;;;;;4989219;28;20061;-80
2021/10/25 11:55:08;;;;;;;4.63;1.67;;;13.10;51.20;;;;;;4972134;28;20088;-77
2021/10/25 11:57:34;;;;;;;19.35;3.10;;;13.10;51.00;;;;;;4972147;28;20092;-77
2021/10/25 12:00:10;;;;;;;7.35;2.05;;;13.20;52.00;;;;;;4971963;28;20026;-76
2021/10/25 12:02:36;;;;;;;8.97;2.13;;;13.30;51.90;;;;;;4971470;28;20518;-77
2021/10/25 12:05:07;;;;;;;8.90;2.35;;;13.40;51.80;;;;;;4971661;28;20796;-77
2021/10/25 12:07:33;;;;;;;9.73;1.98;;;13.40;51.40;;;;;;4971592;28;20085;-77
2021/10/25 12:10:06;;;;;;;6.65;2.00;;;13.40;51.10;;;;;;4971844;28;20089;-76
2021/10/25 12:12:33;;;;;;;4.80;1.50;;;13.40;51.00;;;;;;4970743;28;20039;-78
2021/10/25 12:15:02;;;;;;;7.32;2.10;;;13.40;51.10;;;;;;4989185;28;20033;-78
2021/10/25 12:17:33;;;;;;;7.22;2.03;;;13.60;51.20;;;;;;4989039;28;20037;-76
2021/10/25 12:20:00;;;;;;;5.45;1.80;;;13.70;50.40;;;;;;4988863;28;20054;-76
2021/10/25 12:22:26;;;;;;;11.35;2.42;;;13.60;50.70;;;;;;4988745;28;20034;-77
2021/10/25 12:24:54;;;;;;;;;;;13.80;49.80;;;;;;4989337;28;20026;-77
2021/10/25 12:27:30;;;;;;;12.65;1.70;;;13.70;50.10;;;;;;4971503;28;19957;-77
2021/10/25 12:30:00;;;;;;;;;;;13.70;50.30;;;;;;4971923;28;20030;-77
2021/10/25 12:32:26;;;;;;;6.97;2.20;;;13.80;50.30;;;;;;4971097;28;19918;-77
2021/10/25 12:34:58;;;;;;;3.85;1.40;;;13.70;50.60;;;;;;4988998;28;20495;-76
2021/10/25 12:37:26;;;;;;;5.78;2.33;;;13.80;50.60;;;;;;4989001;28;20038;-76
2021/10/25 12:39:56;;;;;;;9.10;2.10;;;13.90;50.40;;;;;;4988801;28;20031;-78
2021/10/25 12:42:26;;;;;;;12.25;2.15;;;13.80;50.80;;;;;;4971459;28;20026;-76
2021/10/25 12:44:55;;;;;;;5.90;2.08;;;13.90;50.70;;;;;;4989044;28;20657;-76
2021/10/25 12:47:24;;;;;;;5.85;1.35;;;13.80;50.60;;;;;;4971591;28;20030;-77
2021/10/25 12:49:53;;;;;;;5.75;2.00;;;13.90;50.80;;;;;;4988681;28;20102;-77
2021/10/25 12:52:21;;;;;;;15.35;2.50;;;14.00;50.50;;;;;;4971187;28;20054;-75
2021/10/25 12:54:47;;;;;;;5.53;2.08;;;14.10;50.40;;;;;;4988749;28;20079;-77
2021/10/25 12:57:23;;;;;;;6.18;3.30;;;14.20;50.00;;;;;;4971086;28;20030;-76
2021/10/25 12:59:59;;;;;;;9.70;4.07;;;14.10;50.10;;;;;;4988737;28;20503;-77
2021/10/25 13:02:26;;;;;;;8.25;3.47;;;14.20;50.50;;;;;;4988547;28;20269;-75
2021/10/25 13:04:52;;;;;;;6.50;2.33;;;14.30;50.00;;;;;;4971143;28;20030;-78
2021/10/25 13:07:20;;;;;;;;;;;14.30;49.40;;;;;;4971457;28;20089;-78
2021/10/25 13:09:54;;;;;;;13.05;8.35;;;14.20;49.30;;;;;;4971222;28;19992;-76
2021/10/25 13:12:20;;;;;;;17.15;5.97;;;14.20;49.80;;;;;;4971236;28;20042;-76
2021/10/25 13:14:46;;;;;;;;;;;14.10;50.70;;;;;;4971528;28;20061;-75
2021/10/25 13:17:13;;;;;;;7.78;3.08;;;14.10;49.80;;;;;;4988497;28;20337;-78
2021/10/25 13:19:39;;;;;;;7.53;1.88;;;14.10;49.60;;;;;;4988616;28;20109;-78
2021/10/25 13:22:04;;;;;;;;;;;14.20;49.30;;;;;;4988827;28;20110;-77
2021/10/25 13:24:30;;;;;;;4.68;2.03;;;14.10;49.50;;;;;;4991015;28;19991;-78
2021/10/25 13:26:55;;;;;;;;;;;14.00;50.10;;;;;;4975176;28;20030;-78
2021/10/25 13:29:21;;;;;;;10.73;4.82;;;13.80;50.30;;;;;;4974645;28;19905;-79
2021/10/25 13:31:47;;;;;;;;;;;13.80;50.60;;;;;;4992372;28;20504;-77
2021/10/25 13:34:13;;;;;;;9.77;2.40;;;13.90;50.30;;;;;;4974461;28;20280;-77
2021/10/25 13:36:40;;;;;;;5.72;2.08;;;13.80;50.50;;;;;;4974186;28;20032;-77
2021/10/25 13:39:06;;;;;;;4.45;1.95;;;13.90;50.20;;;;;;4974099;28;20022;-77
2021/10/25 13:41:32;;;;;;;;;;;13.70;50.60;;;;;;4974656;28;20037;-77
2021/10/25 13:43:58;;;;;;;6.43;2.15;;;13.60;51.30;;;;;;4974263;28;19906;-78
2021/10/25 13:46:24;;;;;;;8.18;2.15;;;13.70;50.80;;;;;;4973991;28;20030;-77
2021/10/25 13:48:50;;;;;;;10.25;2.15;;;13.50;50.70;;;;;;4974099;28;20085;-78
2021/10/25 13:51:17;;;;;;;33.78;13.70;;;13.50;50.70;;;;;;4991197;28;20109;-77
2021/10/25 13:53:42;;;;;;;14.73;5.70;;;13.40;51.20;;;;;;4973953;28;20126;-77
2021/10/25 13:56:11;;;;;;;;;;;13.40;51.70;;;;;;4974600;28;20123;-78
2021/10/25 13:58:37;;;;;;;10.02;2.08;;;13.40;51.60;;;;;;4973958;28;19913;-76
2021/10/25 14:01:03;;;;;;;;;;;13.30;51.30;;;;;;4974419;28;20035;-77
2021/10/25 14:03:28;;;;;;;7.38;3.50;;;13.30;51.70;;;;;;4973803;28;19961;-77
2021/10/25 14:05:55;;;;;;;;;;;13.30;52.00;;;;;;4991773;28;20027;-78
2021/10/25 14:08:20;;;;;;;8.20;2.40;;;13.30;52.00;;;;;;4973766;28;19960;-76
2021/10/25 14:10:49;;;;;;;;;;;13.20;52.00;;;;;;4973985;28;20499;-77
2021/10/25 14:14:08;;;;;;;7.00;1.85;;;13.20;52.10;;;;;;4991350;28;19910;-77
2021/10/25 14:18:38;;;;;;;7.55;2.25;;;13.10;52.40;;;;;;4991010;28;20037;-78
2021/10/25 14:21:04;;;;;;;5.63;2.40;;;13.10;52.60;;;;;;4991151;28;20038;-77
2021/10/25 14:23:31;;;;;;;9.65;2.70;;;13.00;52.90;;;;;;4991029;28;20487;-77
2021/10/25 14:25:57;;;;;;;16.83;5.63;;;13.00;52.80;;;;;;4973448;28;20468;-77
2021/10/25 14:28:25;;;;;;;;;;;12.90;52.90;;;;;;4973574;28;20543;-77
2021/10/25 14:30:52;;;;;;;6.22;2.50;;;13.00;52.50;;;;;;4973407;28;19914;-82
2021/10/25 14:33:18;;;;;;;10.75;3.22;;;12.90;52.90;;;;;;4991635;28;20067;-78
2021/10/25 14:35:43;;;;;;;;;;;12.80;53.10;;;;;;4973515;28;20045;-77
2021/10/25 14:38:16;;;;;;;17.33;7.70;;;12.80;53.10;;;;;;4990902;28;19913;-77
2021/10/25 14:41:28;;;;;;;15.23;6.97;;;12.80;53.90;;;;;;4973122;28;20037;-76
2021/10/25 14:43:34;;;;;;;16.63;4.90;;;12.70;53.50;;;;;;4984995;28;20130;-76
2021/10/25 14:46:08;;;;;;;13.50;3.55;;;12.70;53.20;;;;;;4990631;28;20061;-77
2021/10/25 14:54:20;;;;;;;60.55;30.48;;;12.50;53.90;;;;;;4990855;28;20101;-77
2021/10/25 14:56:46;;;;;;;48.38;24.48;;;12.40;54.30;;;;;;4972777;28;20129;-77
2021/10/25 14:59:11;;;;;;;;;;;12.40;54.60;;;;;;4990869;28;20097;-79
2021/10/25 15:01:37;;;;;;;34.97;17.60;;;12.30;54.80;;;;;;4972699;28;19959;-78